sensor_id;sensor_type;location;lat;lon;timestamp;temperature;humidity
21115;DHT22;10715;48.546;9.896;2024-03-02T00:00:05;5.20;99.90
21115;DHT22;10715;48.546;9.896;2024-03-02T00:02:44;5.20;99.90
21115;DHT22;10715;48.546;9.896;2024-03-02T00:05:28;5.20;99.90
21115;DHT22;10715;48.546;9.896;2024-03-02T00:07:58;5.20;99.90
21115;DHT22;10715;48.546;9.896;2024-03-02T00:10:37;5.20;99.90
21115;DHT22;10715;48.546;9.896;2024-03-02T00:13:05;5.20;99.90
21115;DHT22;10715;48.546;9.896;2024-03-02T00:15:48;5.20;99.90
21115;DHT22;10715;48.546;9.896;2024-03-02T00:18:19;5.10;99.90
21115;DHT22;10715;48.546;9.896;2024-03-02T00:20:45;5.10;99.90
21115;DHT22;10715;48.546;9.896;2024-03-02T00:23:15;5.20;99.90
21115;DHT22;10715;48.546;9.896;2024-03-02T00:28:15;5.10;99.90
21115;DHT22;10715;48.546;9.896;2024-03-02T00:30:51;5.10;99.90
21115;DHT22;10715;48.546;9.896;2024-03-02T00:33:21;5.10;99.90
21115;DHT22;10715;48.546;9.896;2024-03-02T00:35:47;5.10;99.90
21115;DHT22;10715;48.546;9.896;2024-03-02T00:38:15;5.10;99.90
21115;DHT22;10715;48.546;9.896;2024-03-02T00:40:42;5.10;99.90
21115;DHT22;10715;48.546;9.896;2024-03-02T00:44:03;5.10;99.90
21115;DHT22;10715;48.546;9.896;2024-03-02T00:46:03;5.10;99.90
21115;DHT22;10715;48.546;9.896;2024-03-02T00:48:30;5.10;99.90
21115;DHT22;10715;48.546;9.896;2024-03-02T00:50:57;5.10;99.90
21115;DHT22;10715;48.546;9.896;2024-03-02T00:53:25;5.10;99.90
21115;DHT22;10715;48.546;9.896;2024-03-02T00:55:52;5.10;99.90
21115;DHT22;10715;48.546;9.896;2024-03-02T00:58:18;5.10;99.90
21115;DHT22;10715;48.546;9.896;2024-03-02T01:00:43;5.10;99.90
21115;DHT22;10715;48.546;9.896;2024-03-02T01:03:09;5.10;99.90
21115;DHT22;10715;48.546;9.896;2024-03-02T01:05:36;5.10;99.90
21115;DHT22;10715;48.546;9.896;2024-03-02T01:08:02;5.10;99.90
21115;DHT22;10715;48.546;9.896;2024-03-02T01:10:28;5.10;99.90
21115;DHT22;10715;48.546;9.896;2024-03-02T01:12:53;5.00;99.90
21115;DHT22;10715;48.546;9.896;2024-03-02T01:15:19;5.00;99.90
21115;DHT22;10715;48.546;9.896;2024-03-02T01:17:45;5.00;99.90
21115;DHT22;10715;48.546;9.896;2024-03-02T01:20:11;5.00;99.90
21115;DHT22;10715;48.546;9.896;2024-03-02T01:22:37;5.00;99.90
21115;DHT22;10715;48.546;9.896;2024-03-02T01:25:03;5.00;99.90
21115;DHT22;10715;48.546;9.896;2024-03-02T01:27:29;5.00;99.90
21115;DHT22;10715;48.546;9.896;2024-03-02T01:29:55;5.00;99.90
21115;DHT22;10715;48.546;9.896;2024-03-02T01:32:21;5.00;99.90
21115;DHT22;10715;48.546;9.896;2024-03-02T01:34:46;5.00;99.90
21115;DHT22;10715;48.546;9.896;2024-03-02T01:37:12;5.00;99.90
21115;DHT22;10715;48.546;9.896;2024-03-02T01:39:38;5.00;99.90
21115;DHT22;10715;48.546;9.896;2024-03-02T01:42:04;5.00;99.90
21115;DHT22;10715;48.546;9.896;2024-03-02T01:44:29;4.90;99.90
21115;DHT22;10715;48.546;9.896;2024-03-02T01:46:55;4.90;99.90
21115;DHT22;10715;48.546;9.896;2024-03-02T01:49:21;4.90;99.90
21115;DHT22;10715;48.546;9.896;2024-03-02T01:51:47;4.90;99.90
21115;DHT22;10715;48.546;9.896;2024-03-02T01:54:13;4.90;99.90
21115;DHT22;10715;48.546;9.896;2024-03-02T01:56:39;4.90;99.90
21115;DHT22;10715;48.546;9.896;2024-03-02T01:59:05;4.90;99.90
21115;DHT22;10715;48.546;9.896;2024-03-02T02:01:31;4.80;99.90
21115;DHT22;10715;48.546;9.896;2024-03-02T02:03:57;4.80;99.90
21115;DHT22;10715;48.546;9.896;2024-03-02T02:06:22;4.80;99.90
21115;DHT22;10715;48.546;9.896;2024-03-02T02:08:48;4.80;99.90
21115;DHT22;10715;48.546;9.896;2024-03-02T02:11:17;4.80;99.90
21115;DHT22;10715;48.546;9.896;2024-03-02T02:13:43;4.80;99.90
21115;DHT22;10715;48.546;9.896;2024-03-02T02:16:09;4.70;99.90
21115;DHT22;10715;48.546;9.896;2024-03-02T02:18:35;4.70;99.90
21115;DHT22;10715;48.546;9.896;2024-03-02T02:21:02;4.70;99.90
21115;DHT22;10715;48.546;9.896;2024-03-02T02:23:28;4.60;99.90
21115;DHT22;10715;48.546;9.896;2024-03-02T02:25:53;4.60;99.90
21115;DHT22;10715;48.546;9.896;2024-03-02T02:28:20;4.60;99.90
21115;DHT22;10715;48.546;9.896;2024-03-02T02:30:45;4.60;99.90
21115;DHT22;10715;48.546;9.896;2024-03-02T02:33:11;4.60;99.90
21115;DHT22;10715;48.546;9.896;2024-03-02T02:35:37;4.60;99.90
21115;DHT22;10715;48.546;9.896;2024-03-02T02:38:03;4.60;99.90
21115;DHT22;10715;48.546;9.896;2024-03-02T02:40:29;4.60;99.90
21115;DHT22;10715;48.546;9.896;2024-03-02T02:42:56;4.50;99.90
21115;DHT22;10715;48.546;9.896;2024-03-02T02:45:22;4.50;99.90
21115;DHT22;10715;48.546;9.896;2024-03-02T02:47:48;4.50;99.90
21115;DHT22;10715;48.546;9.896;2024-03-02T02:50:14;4.50;99.90
21115;DHT22;10715;48.546;9.896;2024-03-02T02:52:41;4.50;99.90
21115;DHT22;10715;48.546;9.896;2024-03-02T02:55:11;4.50;99.90
21115;DHT22;10715;48.546;9.896;2024-03-02T02:57:39;4.50;99.90
21115;DHT22;10715;48.546;9.896;2024-03-02T03:00:12;4.40;99.90
21115;DHT22;10715;48.546;9.896;2024-03-02T03:02:44;4.40;99.90
21115;DHT22;10715;48.546;9.896;2024-03-02T03:05:11;4.40;99.90
21115;DHT22;10715;48.546;9.896;2024-03-02T03:07:38;4.40;99.90
21115;DHT22;10715;48.546;9.896;2024-03-02T03:10:05;4.40;99.90
21115;DHT22;10715;48.546;9.896;2024-03-02T03:12:32;4.40;99.90
21115;DHT22;10715;48.546;9.896;2024-03-02T03:14:58;4.30;99.90
21115;DHT22;10715;48.546;9.896;2024-03-02T03:17:25;4.30;99.90
21115;DHT22;10715;48.546;9.896;2024-03-02T03:19:51;4.20;99.90
21115;DHT22;10715;48.546;9.896;2024-03-02T03:22:17;4.20;99.90
21115;DHT22;10715;48.546;9.896;2024-03-02T03:24:43;4.20;99.90
21115;DHT22;10715;48.546;9.896;2024-03-02T03:27:09;4.20;99.90
21115;DHT22;10715;48.546;9.896;2024-03-02T03:29:36;4.20;99.90
21115;DHT22;10715;48.546;9.896;2024-03-02T03:32:02;4.20;99.90
21115;DHT22;10715;48.546;9.896;2024-03-02T03:34:27;4.20;99.90
21115;DHT22;10715;48.546;9.896;2024-03-02T03:36:54;4.20;99.90
21115;DHT22;10715;48.546;9.896;2024-03-02T03:39:20;4.20;99.90
21115;DHT22;10715;48.546;9.896;2024-03-02T03:41:46;4.10;99.90
21115;DHT22;10715;48.546;9.896;2024-03-02T03:44:12;4.10;99.90
21115;DHT22;10715;48.546;9.896;2024-03-02T03:46:38;4.10;99.90
21115;DHT22;10715;48.546;9.896;2024-03-02T03:49:03;4.10;99.90
21115;DHT22;10715;48.546;9.896;2024-03-02T03:51:29;4.20;99.90
21115;DHT22;10715;48.546;9.896;2024-03-02T03:53:56;4.10;99.90
21115;DHT22;10715;48.546;9.896;2024-03-02T03:56:21;4.10;99.90
21115;DHT22;10715;48.546;9.896;2024-03-02T03:58:47;4.10;99.90
21115;DHT22;10715;48.546;9.896;2024-03-02T04:01:13;4.10;99.90
21115;DHT22;10715;48.546;9.896;2024-03-02T04:03:38;4.10;99.90
21115;DHT22;10715;48.546;9.896;2024-03-02T04:06:04;4.10;99.90
21115;DHT22;10715;48.546;9.896;2024-03-02T04:08:30;4.10;99.90
21115;DHT22;10715;48.546;9.896;2024-03-02T04:10:55;4.10;99.90
21115;DHT22;10715;48.546;9.896;2024-03-02T04:13:21;4.10;99.90
21115;DHT22;10715;48.546;9.896;2024-03-02T04:15:47;4.10;99.90
21115;DHT22;10715;48.546;9.896;2024-03-02T04:18:13;4.10;99.90
21115;DHT22;10715;48.546;9.896;2024-03-02T04:20:38;4.10;99.90
21115;DHT22;10715;48.546;9.896;2024-03-02T04:23:04;4.10;99.90
21115;DHT22;10715;48.546;9.896;2024-03-02T04:25:30;4.10;99.90
21115;DHT22;10715;48.546;9.896;2024-03-02T04:27:56;4.10;99.90
21115;DHT22;10715;48.546;9.896;2024-03-02T04:30:22;4.00;99.90
21115;DHT22;10715;48.546;9.896;2024-03-02T04:32:47;4.00;99.90
21115;DHT22;10715;48.546;9.896;2024-03-02T04:35:14;4.00;99.90
21115;DHT22;10715;48.546;9.896;2024-03-02T04:37:40;4.00;99.90
21115;DHT22;10715;48.546;9.896;2024-03-02T04:40:06;4.00;99.90
21115;DHT22;10715;48.546;9.896;2024-03-02T04:42:34;4.00;99.90
21115;DHT22;10715;48.546;9.896;2024-03-02T04:44:59;4.00;99.90
21115;DHT22;10715;48.546;9.896;2024-03-02T04:47:25;4.00;99.90
21115;DHT22;10715;48.546;9.896;2024-03-02T04:49:51;4.00;99.90
21115;DHT22;10715;48.546;9.896;2024-03-02T04:52:16;4.00;99.90
21115;DHT22;10715;48.546;9.896;2024-03-02T04:54:43;4.00;99.90
21115;DHT22;10715;48.546;9.896;2024-03-02T04:57:27;4.00;99.90
21115;DHT22;10715;48.546;9.896;2024-03-02T04:59:52;4.00;99.90
21115;DHT22;10715;48.546;9.896;2024-03-02T05:02:18;4.00;99.90
21115;DHT22;10715;48.546;9.896;2024-03-02T05:04:44;4.00;99.90
21115;DHT22;10715;48.546;9.896;2024-03-02T05:07:10;4.00;99.90
21115;DHT22;10715;48.546;9.896;2024-03-02T05:09:35;4.00;99.90
21115;DHT22;10715;48.546;9.896;2024-03-02T05:12:01;3.90;99.90
21115;DHT22;10715;48.546;9.896;2024-03-02T05:14:55;3.90;99.90
21115;DHT22;10715;48.546;9.896;2024-03-02T05:17:21;3.90;99.90
21115;DHT22;10715;48.546;9.896;2024-03-02T05:19:47;4.00;99.90
21115;DHT22;10715;48.546;9.896;2024-03-02T05:22:13;4.00;99.90
21115;DHT22;10715;48.546;9.896;2024-03-02T05:24:39;3.90;99.90
21115;DHT22;10715;48.546;9.896;2024-03-02T05:27:04;4.00;99.90
21115;DHT22;10715;48.546;9.896;2024-03-02T05:29:31;4.00;99.90
21115;DHT22;10715;48.546;9.896;2024-03-02T05:31:57;4.00;99.90
21115;DHT22;10715;48.546;9.896;2024-03-02T05:34:23;4.00;99.90
21115;DHT22;10715;48.546;9.896;2024-03-02T05:36:48;4.00;99.90
21115;DHT22;10715;48.546;9.896;2024-03-02T05:39:14;4.00;99.90
21115;DHT22;10715;48.546;9.896;2024-03-02T05:41:41;4.00;99.90
21115;DHT22;10715;48.546;9.896;2024-03-02T05:44:06;4.00;99.90
21115;DHT22;10715;48.546;9.896;2024-03-02T05:46:32;4.00;99.90
21115;DHT22;10715;48.546;9.896;2024-03-02T05:48:59;4.00;99.90
21115;DHT22;10715;48.546;9.896;2024-03-02T05:51:26;4.00;99.90
21115;DHT22;10715;48.546;9.896;2024-03-02T05:53:52;4.00;99.90
21115;DHT22;10715;48.546;9.896;2024-03-02T05:56:18;4.00;99.90
21115;DHT22;10715;48.546;9.896;2024-03-02T05:58:43;4.00;99.90
21115;DHT22;10715;48.546;9.896;2024-03-02T06:01:26;4.00;99.90
21115;DHT22;10715;48.546;9.896;2024-03-02T06:03:55;4.00;99.90
21115;DHT22;10715;48.546;9.896;2024-03-02T06:06:22;4.00;99.90
21115;DHT22;10715;48.546;9.896;2024-03-02T06:08:48;4.00;99.90
21115;DHT22;10715;48.546;9.896;2024-03-02T06:11:14;4.00;99.90
21115;DHT22;10715;48.546;9.896;2024-03-02T06:13:39;4.00;99.90
21115;DHT22;10715;48.546;9.896;2024-03-02T06:16:05;4.00;99.90
21115;DHT22;10715;48.546;9.896;2024-03-02T06:18:31;4.00;99.90
21115;DHT22;10715;48.546;9.896;2024-03-02T06:20:57;4.00;99.90
21115;DHT22;10715;48.546;9.896;2024-03-02T06:23:23;4.00;99.90
21115;DHT22;10715;48.546;9.896;2024-03-02T06:25:48;4.00;99.90
21115;DHT22;10715;48.546;9.896;2024-03-02T06:28:14;4.00;99.90
21115;DHT22;10715;48.546;9.896;2024-03-02T06:30:42;4.00;99.90
21115;DHT22;10715;48.546;9.896;2024-03-02T06:33:09;4.00;99.90
21115;DHT22;10715;48.546;9.896;2024-03-02T06:35:35;4.00;99.90
21115;DHT22;10715;48.546;9.896;2024-03-02T06:38:02;4.00;99.90
21115;DHT22;10715;48.546;9.896;2024-03-02T06:40:28;3.90;99.90
21115;DHT22;10715;48.546;9.896;2024-03-02T06:42:53;4.00;99.90
21115;DHT22;10715;48.546;9.896;2024-03-02T06:45:19;3.90;99.90
21115;DHT22;10715;48.546;9.896;2024-03-02T06:47:45;3.90;99.90
21115;DHT22;10715;48.546;9.896;2024-03-02T06:50:11;3.90;99.90
21115;DHT22;10715;48.546;9.896;2024-03-02T06:52:37;4.00;99.90
21115;DHT22;10715;48.546;9.896;2024-03-02T06:55:03;3.90;99.90
21115;DHT22;10715;48.546;9.896;2024-03-02T06:57:30;3.90;99.90
21115;DHT22;10715;48.546;9.896;2024-03-02T06:59:55;4.00;99.90
21115;DHT22;10715;48.546;9.896;2024-03-02T07:02:24;4.00;99.90
21115;DHT22;10715;48.546;9.896;2024-03-02T07:04:55;4.00;99.90
21115;DHT22;10715;48.546;9.896;2024-03-02T07:07:21;4.00;99.90
21115;DHT22;10715;48.546;9.896;2024-03-02T07:09:47;4.00;99.90
21115;DHT22;10715;48.546;9.896;2024-03-02T07:12:13;4.00;99.90
21115;DHT22;10715;48.546;9.896;2024-03-02T07:14:39;4.00;99.90
21115;DHT22;10715;48.546;9.896;2024-03-02T07:17:23;4.00;99.90
21115;DHT22;10715;48.546;9.896;2024-03-02T07:19:49;4.00;99.90
21115;DHT22;10715;48.546;9.896;2024-03-02T07:22:14;4.10;99.90
21115;DHT22;10715;48.546;9.896;2024-03-02T07:24:43;4.00;99.90
21115;DHT22;10715;48.546;9.896;2024-03-02T07:27:10;4.10;99.90
21115;DHT22;10715;48.546;9.896;2024-03-02T07:29:37;4.10;99.90
21115;DHT22;10715;48.546;9.896;2024-03-02T07:32:04;4.10;99.90
21115;DHT22;10715;48.546;9.896;2024-03-02T07:34:29;4.10;99.90
21115;DHT22;10715;48.546;9.896;2024-03-02T07:36:55;4.10;99.90
21115;DHT22;10715;48.546;9.896;2024-03-02T07:39:22;4.10;99.90
21115;DHT22;10715;48.546;9.896;2024-03-02T07:41:48;4.10;99.90
21115;DHT22;10715;48.546;9.896;2024-03-02T07:44:14;4.10;99.90
21115;DHT22;10715;48.546;9.896;2024-03-02T07:46:43;4.20;99.90
21115;DHT22;10715;48.546;9.896;2024-03-02T07:49:09;4.20;99.90
21115;DHT22;10715;48.546;9.896;2024-03-02T07:51:35;4.20;99.90
21115;DHT22;10715;48.546;9.896;2024-03-02T07:54:02;4.20;99.90
21115;DHT22;10715;48.546;9.896;2024-03-02T07:56:27;4.20;99.90
21115;DHT22;10715;48.546;9.896;2024-03-02T07:58:54;4.20;99.90
21115;DHT22;10715;48.546;9.896;2024-03-02T08:01:20;4.30;99.90
21115;DHT22;10715;48.546;9.896;2024-03-02T08:03:45;4.30;99.90
21115;DHT22;10715;48.546;9.896;2024-03-02T08:06:16;4.30;99.90
21115;DHT22;10715;48.546;9.896;2024-03-02T08:08:42;4.30;99.90
21115;DHT22;10715;48.546;9.896;2024-03-02T08:11:07;4.30;99.90
21115;DHT22;10715;48.546;9.896;2024-03-02T08:13:33;4.30;99.90
21115;DHT22;10715;48.546;9.896;2024-03-02T08:15:59;4.30;99.90
21115;DHT22;10715;48.546;9.896;2024-03-02T08:18:25;4.30;99.90
21115;DHT22;10715;48.546;9.896;2024-03-02T08:20:50;4.30;99.90
21115;DHT22;10715;48.546;9.896;2024-03-02T08:23:17;4.40;99.90
21115;DHT22;10715;48.546;9.896;2024-03-02T08:25:43;4.40;99.90
21115;DHT22;10715;48.546;9.896;2024-03-02T08:28:08;4.40;99.90
21115;DHT22;10715;48.546;9.896;2024-03-02T08:30:34;4.50;99.90
21115;DHT22;10715;48.546;9.896;2024-03-02T08:33:00;4.50;99.90
21115;DHT22;10715;48.546;9.896;2024-03-02T08:35:26;4.50;99.90
21115;DHT22;10715;48.546;9.896;2024-03-02T08:37:51;4.60;99.90
21115;DHT22;10715;48.546;9.896;2024-03-02T08:40:17;4.60;99.90
21115;DHT22;10715;48.546;9.896;2024-03-02T08:42:43;4.60;99.90
21115;DHT22;10715;48.546;9.896;2024-03-02T08:45:09;4.60;99.90
21115;DHT22;10715;48.546;9.896;2024-03-02T08:47:35;4.70;99.90
21115;DHT22;10715;48.546;9.896;2024-03-02T08:50:00;4.70;99.90
21115;DHT22;10715;48.546;9.896;2024-03-02T08:52:27;4.70;99.90
21115;DHT22;10715;48.546;9.896;2024-03-02T08:54:52;4.70;99.90
21115;DHT22;10715;48.546;9.896;2024-03-02T08:57:18;4.80;99.90
21115;DHT22;10715;48.546;9.896;2024-03-02T08:59:44;4.80;99.90
21115;DHT22;10715;48.546;9.896;2024-03-02T09:02:10;4.80;99.90
21115;DHT22;10715;48.546;9.896;2024-03-02T09:04:36;4.90;99.90
21115;DHT22;10715;48.546;9.896;2024-03-02T09:07:01;4.90;99.90
21115;DHT22;10715;48.546;9.896;2024-03-02T09:09:27;5.00;99.90
21115;DHT22;10715;48.546;9.896;2024-03-02T09:11:53;5.00;99.90
21115;DHT22;10715;48.546;9.896;2024-03-02T09:14:21;5.00;99.90
21115;DHT22;10715;48.546;9.896;2024-03-02T09:16:46;5.10;99.90
21115;DHT22;10715;48.546;9.896;2024-03-02T09:19:12;5.10;99.90
21115;DHT22;10715;48.546;9.896;2024-03-02T09:21:38;5.20;99.90
21115;DHT22;10715;48.546;9.896;2024-03-02T09:24:04;5.30;99.90
21115;DHT22;10715;48.546;9.896;2024-03-02T09:26:32;5.40;99.90
21115;DHT22;10715;48.546;9.896;2024-03-02T09:28:58;5.40;99.90
21115;DHT22;10715;48.546;9.896;2024-03-02T09:31:23;5.50;99.90
21115;DHT22;10715;48.546;9.896;2024-03-02T09:33:49;5.50;99.90
21115;DHT22;10715;48.546;9.896;2024-03-02T09:36:22;5.60;99.90
21115;DHT22;10715;48.546;9.896;2024-03-02T09:38:48;5.60;99.90
21115;DHT22;10715;48.546;9.896;2024-03-02T09:41:14;5.60;99.90
21115;DHT22;10715;48.546;9.896;2024-03-02T09:43:40;5.70;99.90
21115;DHT22;10715;48.546;9.896;2024-03-02T09:46:08;5.70;99.90
21115;DHT22;10715;48.546;9.896;2024-03-02T09:48:34;5.80;99.90
21115;DHT22;10715;48.546;9.896;2024-03-02T09:51:00;5.80;99.90
21115;DHT22;10715;48.546;9.896;2024-03-02T09:53:32;5.90;99.90
21115;DHT22;10715;48.546;9.896;2024-03-02T09:56:00;5.90;99.90
21115;DHT22;10715;48.546;9.896;2024-03-02T09:58:26;5.90;99.90
21115;DHT22;10715;48.546;9.896;2024-03-02T10:00:51;6.00;99.90
21115;DHT22;10715;48.546;9.896;2024-03-02T10:03:19;6.10;99.90
21115;DHT22;10715;48.546;9.896;2024-03-02T10:05:45;6.10;99.90
21115;DHT22;10715;48.546;9.896;2024-03-02T10:08:10;6.20;99.90
21115;DHT22;10715;48.546;9.896;2024-03-02T10:10:38;6.30;99.90
21115;DHT22;10715;48.546;9.896;2024-03-02T10:13:09;6.30;99.90
21115;DHT22;10715;48.546;9.896;2024-03-02T10:15:36;6.40;99.90
21115;DHT22;10715;48.546;9.896;2024-03-02T10:18:12;6.40;99.90
21115;DHT22;10715;48.546;9.896;2024-03-02T10:20:39;6.50;99.90
21115;DHT22;10715;48.546;9.896;2024-03-02T10:23:14;6.60;99.90
21115;DHT22;10715;48.546;9.896;2024-03-02T10:25:42;6.60;99.90
21115;DHT22;10715;48.546;9.896;2024-03-02T10:28:07;6.70;99.90
21115;DHT22;10715;48.546;9.896;2024-03-02T10:30:34;6.70;99.90
21115;DHT22;10715;48.546;9.896;2024-03-02T10:33:04;6.80;99.90
21115;DHT22;10715;48.546;9.896;2024-03-02T10:35:31;6.80;99.90
21115;DHT22;10715;48.546;9.896;2024-03-02T10:37:59;6.90;99.90
21115;DHT22;10715;48.546;9.896;2024-03-02T10:40:27;7.00;99.90
21115;DHT22;10715;48.546;9.896;2024-03-02T10:42:53;7.00;99.90
21115;DHT22;10715;48.546;9.896;2024-03-02T10:45:20;7.10;99.90
21115;DHT22;10715;48.546;9.896;2024-03-02T10:47:50;7.10;99.90
21115;DHT22;10715;48.546;9.896;2024-03-02T10:50:16;7.10;99.90
21115;DHT22;10715;48.546;9.896;2024-03-02T10:52:42;7.20;99.90
21115;DHT22;10715;48.546;9.896;2024-03-02T10:55:09;7.30;99.90
21115;DHT22;10715;48.546;9.896;2024-03-02T10:57:45;7.40;99.90
21115;DHT22;10715;48.546;9.896;2024-03-02T11:00:15;7.50;99.90
21115;DHT22;10715;48.546;9.896;2024-03-02T11:02:52;7.60;99.90
21115;DHT22;10715;48.546;9.896;2024-03-02T11:05:28;7.70;99.90
21115;DHT22;10715;48.546;9.896;2024-03-02T11:08:00;7.80;99.90
21115;DHT22;10715;48.546;9.896;2024-03-02T11:10:50;7.90;99.90
21115;DHT22;10715;48.546;9.896;2024-03-02T11:13:23;7.90;99.90
21115;DHT22;10715;48.546;9.896;2024-03-02T11:15:53;8.00;99.90
21115;DHT22;10715;48.546;9.896;2024-03-02T11:18:21;8.10;99.90
21115;DHT22;10715;48.546;9.896;2024-03-02T11:20:47;8.20;99.90
21115;DHT22;10715;48.546;9.896;2024-03-02T11:23:13;8.30;99.90
21115;DHT22;10715;48.546;9.896;2024-03-02T11:25:39;8.40;99.90
21115;DHT22;10715;48.546;9.896;2024-03-02T11:28:06;8.50;99.90
21115;DHT22;10715;48.546;9.896;2024-03-02T11:33:04;8.60;99.90
21115;DHT22;10715;48.546;9.896;2024-03-02T11:35:42;8.70;99.90
21115;DHT22;10715;48.546;9.896;2024-03-02T11:38:14;8.70;99.90
21115;DHT22;10715;48.546;9.896;2024-03-02T11:40:40;8.70;99.90
21115;DHT22;10715;48.546;9.896;2024-03-02T11:43:07;8.80;99.90
21115;DHT22;10715;48.546;9.896;2024-03-02T11:45:33;8.80;99.90
21115;DHT22;10715;48.546;9.896;2024-03-02T11:48:00;8.90;99.90
21115;DHT22;10715;48.546;9.896;2024-03-02T11:50:49;8.90;99.90
21115;DHT22;10715;48.546;9.896;2024-03-02T11:53:16;9.00;99.90
21115;DHT22;10715;48.546;9.896;2024-03-02T11:55:42;9.10;99.90
21115;DHT22;10715;48.546;9.896;2024-03-02T11:58:12;9.10;99.90
21115;DHT22;10715;48.546;9.896;2024-03-02T12:00:38;9.20;99.90
21115;DHT22;10715;48.546;9.896;2024-03-02T12:03:06;9.20;99.90
21115;DHT22;10715;48.546;9.896;2024-03-02T12:05:32;9.30;99.90
21115;DHT22;10715;48.546;9.896;2024-03-02T12:08:03;9.40;99.90
21115;DHT22;10715;48.546;9.896;2024-03-02T12:10:30;9.40;99.90
21115;DHT22;10715;48.546;9.896;2024-03-02T12:13:03;9.50;99.90
21115;DHT22;10715;48.546;9.896;2024-03-02T12:15:30;9.50;99.90
21115;DHT22;10715;48.546;9.896;2024-03-02T12:17:58;9.60;99.90
21115;DHT22;10715;48.546;9.896;2024-03-02T12:20:26;9.60;99.90
21115;DHT22;10715;48.546;9.896;2024-03-02T12:22:53;9.60;99.90
21115;DHT22;10715;48.546;9.896;2024-03-02T12:25:23;9.60;99.90
21115;DHT22;10715;48.546;9.896;2024-03-02T12:27:51;9.60;99.90
21115;DHT22;10715;48.546;9.896;2024-03-02T12:30:18;9.50;99.90
21115;DHT22;10715;48.546;9.896;2024-03-02T12:32:47;9.50;99.90
21115;DHT22;10715;48.546;9.896;2024-03-02T12:35:13;9.50;99.90
21115;DHT22;10715;48.546;9.896;2024-03-02T12:37:44;9.50;99.90
21115;DHT22;10715;48.546;9.896;2024-03-02T12:40:11;9.50;99.90
21115;DHT22;10715;48.546;9.896;2024-03-02T12:42:38;9.50;99.90
21115;DHT22;10715;48.546;9.896;2024-03-02T12:45:08;9.50;99.90
21115;DHT22;10715;48.546;9.896;2024-03-02T12:47:34;9.50;99.90
21115;DHT22;10715;48.546;9.896;2024-03-02T12:50:01;9.50;99.90
21115;DHT22;10715;48.546;9.896;2024-03-02T12:52:27;9.50;99.90
21115;DHT22;10715;48.546;9.896;2024-03-02T12:54:53;9.50;99.90
21115;DHT22;10715;48.546;9.896;2024-03-02T12:57:25;9.60;99.90
21115;DHT22;10715;48.546;9.896;2024-03-02T12:59:52;9.60;99.90
21115;DHT22;10715;48.546;9.896;2024-03-02T13:02:18;9.70;99.90
21115;DHT22;10715;48.546;9.896;2024-03-02T13:04:44;9.70;99.90
21115;DHT22;10715;48.546;9.896;2024-03-02T13:07:10;9.70;99.90
21115;DHT22;10715;48.546;9.896;2024-03-02T13:09:37;9.70;99.90
21115;DHT22;10715;48.546;9.896;2024-03-02T13:12:03;9.70;99.90
21115;DHT22;10715;48.546;9.896;2024-03-02T13:14:35;9.70;99.90
21115;DHT22;10715;48.546;9.896;2024-03-02T13:17:01;9.70;99.90
21115;DHT22;10715;48.546;9.896;2024-03-02T13:19:29;9.70;99.90
21115;DHT22;10715;48.546;9.896;2024-03-02T13:21:56;9.80;99.90
21115;DHT22;10715;48.546;9.896;2024-03-02T13:24:23;9.80;99.90
21115;DHT22;10715;48.546;9.896;2024-03-02T13:26:53;9.80;99.90
21115;DHT22;10715;48.546;9.896;2024-03-02T13:29:22;9.90;99.90
21115;DHT22;10715;48.546;9.896;2024-03-02T13:31:48;9.90;99.90
21115;DHT22;10715;48.546;9.896;2024-03-02T13:34:14;9.90;99.90
21115;DHT22;10715;48.546;9.896;2024-03-02T13:36:39;9.90;99.90
21115;DHT22;10715;48.546;9.896;2024-03-02T13:39:05;10.00;99.90
21115;DHT22;10715;48.546;9.896;2024-03-02T13:41:34;10.00;99.90
21115;DHT22;10715;48.546;9.896;2024-03-02T13:44:00;10.00;99.90
21115;DHT22;10715;48.546;9.896;2024-03-02T13:46:27;10.10;99.90
21115;DHT22;10715;48.546;9.896;2024-03-02T13:48:54;10.10;99.90
21115;DHT22;10715;48.546;9.896;2024-03-02T13:51:20;10.10;99.90
21115;DHT22;10715;48.546;9.896;2024-03-02T13:53:46;10.20;99.90
21115;DHT22;10715;48.546;9.896;2024-03-02T13:56:11;10.20;99.90
21115;DHT22;10715;48.546;9.896;2024-03-02T13:58:37;10.20;99.90
21115;DHT22;10715;48.546;9.896;2024-03-02T14:01:04;10.20;99.90
21115;DHT22;10715;48.546;9.896;2024-03-02T14:03:30;10.20;99.90
21115;DHT22;10715;48.546;9.896;2024-03-02T14:05:56;10.20;99.90
21115;DHT22;10715;48.546;9.896;2024-03-02T14:08:22;10.20;99.90
21115;DHT22;10715;48.546;9.896;2024-03-02T14:10:48;10.20;99.90
21115;DHT22;10715;48.546;9.896;2024-03-02T14:13:14;10.30;99.90
21115;DHT22;10715;48.546;9.896;2024-03-02T14:15:41;10.30;99.90
21115;DHT22;10715;48.546;9.896;2024-03-02T14:18:07;10.30;99.90
21115;DHT22;10715;48.546;9.896;2024-03-02T14:20:35;10.40;99.90
21115;DHT22;10715;48.546;9.896;2024-03-02T14:23:01;10.40;99.90
21115;DHT22;10715;48.546;9.896;2024-03-02T14:25:28;10.40;99.90
21115;DHT22;10715;48.546;9.896;2024-03-02T14:27:57;10.50;99.90
21115;DHT22;10715;48.546;9.896;2024-03-02T14:30:23;10.50;99.90
21115;DHT22;10715;48.546;9.896;2024-03-02T14:32:49;10.50;99.90
21115;DHT22;10715;48.546;9.896;2024-03-02T14:35:16;10.50;99.90
21115;DHT22;10715;48.546;9.896;2024-03-02T14:37:42;10.50;99.90
21115;DHT22;10715;48.546;9.896;2024-03-02T14:40:08;10.50;99.90
21115;DHT22;10715;48.546;9.896;2024-03-02T14:42:35;10.60;99.90
21115;DHT22;10715;48.546;9.896;2024-03-02T14:45:01;10.60;99.90
21115;DHT22;10715;48.546;9.896;2024-03-02T14:47:31;10.60;99.90
21115;DHT22;10715;48.546;9.896;2024-03-02T14:49:58;10.60;99.90
21115;DHT22;10715;48.546;9.896;2024-03-02T14:52:23;10.60;99.90
21115;DHT22;10715;48.546;9.896;2024-03-02T14:54:49;10.60;99.90
21115;DHT22;10715;48.546;9.896;2024-03-02T14:57:15;10.60;99.90
21115;DHT22;10715;48.546;9.896;2024-03-02T14:59:40;10.60;99.90
21115;DHT22;10715;48.546;9.896;2024-03-02T15:02:08;10.60;99.90
21115;DHT22;10715;48.546;9.896;2024-03-02T15:04:33;10.60;99.90
21115;DHT22;10715;48.546;9.896;2024-03-02T15:06:59;10.70;99.90
21115;DHT22;10715;48.546;9.896;2024-03-02T15:09:25;10.70;99.90
21115;DHT22;10715;48.546;9.896;2024-03-02T15:11:51;10.70;99.90
21115;DHT22;10715;48.546;9.896;2024-03-02T15:14:16;10.70;99.90
21115;DHT22;10715;48.546;9.896;2024-03-02T15:16:42;10.70;99.90
21115;DHT22;10715;48.546;9.896;2024-03-02T15:19:08;10.70;99.90
21115;DHT22;10715;48.546;9.896;2024-03-02T15:21:34;10.60;99.90
21115;DHT22;10715;48.546;9.896;2024-03-02T15:23:59;10.60;99.90
21115;DHT22;10715;48.546;9.896;2024-03-02T15:26:25;10.60;99.90
21115;DHT22;10715;48.546;9.896;2024-03-02T15:28:51;10.60;99.90
21115;DHT22;10715;48.546;9.896;2024-03-02T15:31:18;10.50;99.90
21115;DHT22;10715;48.546;9.896;2024-03-02T15:33:44;10.50;99.90
21115;DHT22;10715;48.546;9.896;2024-03-02T15:36:10;10.50;99.90
21115;DHT22;10715;48.546;9.896;2024-03-02T15:38:36;10.50;99.90
21115;DHT22;10715;48.546;9.896;2024-03-02T15:41:03;10.50;99.90
21115;DHT22;10715;48.546;9.896;2024-03-02T15:43:29;10.40;99.90
21115;DHT22;10715;48.546;9.896;2024-03-02T15:45:56;10.40;99.90
21115;DHT22;10715;48.546;9.896;2024-03-02T15:48:22;10.40;99.90